sensor_id;sensor_type;location;lat;lon;timestamp;temperature;humidity
27072;DHT22;14613;46.308;25.288;2023-04-03T00:01:13;11.30;80.30
27072;DHT22;14613;46.308;25.288;2023-04-03T00:03:40;11.30;80.30
27072;DHT22;14613;46.308;25.288;2023-04-03T00:06:07;11.30;80.30
27072;DHT22;14613;46.308;25.288;2023-04-03T00:08:35;11.30;80.40
27072;DHT22;14613;46.308;25.288;2023-04-03T00:11:01;11.30;80.40
27072;DHT22;14613;46.308;25.288;2023-04-03T00:13:27;11.30;80.40
27072;DHT22;14613;46.308;25.288;2023-04-03T00:15:53;11.20;80.40
27072;DHT22;14613;46.308;25.288;2023-04-03T00:18:19;11.20;80.50
27072;DHT22;14613;46.308;25.288;2023-04-03T00:20:45;11.10;80.60
27072;DHT22;14613;46.308;25.288;2023-04-03T00:23:11;11.10;80.60
27072;DHT22;14613;46.308;25.288;2023-04-03T00:25:36;11.10;80.80
27072;DHT22;14613;46.308;25.288;2023-04-03T00:28:03;11.10;80.80
27072;DHT22;14613;46.308;25.288;2023-04-03T00:30:29;11.10;80.90
27072;DHT22;14613;46.308;25.288;2023-04-03T00:32:56;11.10;80.90
27072;DHT22;14613;46.308;25.288;2023-04-03T00:35:22;11.20;81.00
27072;DHT22;14613;46.308;25.288;2023-04-03T00:37:51;11.20;81.00
27072;DHT22;14613;46.308;25.288;2023-04-03T00:40:19;11.20;80.90
27072;DHT22;14613;46.308;25.288;2023-04-03T00:42:47;11.20;80.90
27072;DHT22;14613;46.308;25.288;2023-04-03T00:47:40;11.20;80.90
27072;DHT22;14613;46.308;25.288;2023-04-03T00:50:07;11.20;80.90
27072;DHT22;14613;46.308;25.288;2023-04-03T00:52:32;11.20;80.90
27072;DHT22;14613;46.308;25.288;2023-04-03T00:55:02;11.20;80.90
27072;DHT22;14613;46.308;25.288;2023-04-03T00:57:30;11.20;80.90
27072;DHT22;14613;46.308;25.288;2023-04-03T01:00:02;11.20;80.90
27072;DHT22;14613;46.308;25.288;2023-04-03T01:02:30;11.30;81.00
27072;DHT22;14613;46.308;25.288;2023-04-03T01:04:56;11.20;80.90
27072;DHT22;14613;46.308;25.288;2023-04-03T01:07:24;11.20;80.90
27072;DHT22;14613;46.308;25.288;2023-04-03T01:09:56;11.20;80.90
27072;DHT22;14613;46.308;25.288;2023-04-03T01:12:38;11.30;80.90
27072;DHT22;14613;46.308;25.288;2023-04-03T01:15:25;11.30;80.80
27072;DHT22;14613;46.308;25.288;2023-04-03T01:17:53;11.20;80.70
27072;DHT22;14613;46.308;25.288;2023-04-03T01:20:35;11.30;80.70
27072;DHT22;14613;46.308;25.288;2023-04-03T01:25:49;11.20;80.70
27072;DHT22;14613;46.308;25.288;2023-04-03T01:28:47;11.20;80.60
27072;DHT22;14613;46.308;25.288;2023-04-03T01:31:31;11.20;80.80
27072;DHT22;14613;46.308;25.288;2023-04-03T01:33:58;11.20;80.80
27072;DHT22;14613;46.308;25.288;2023-04-03T01:36:27;11.20;80.80
27072;DHT22;14613;46.308;25.288;2023-04-03T01:38:54;11.20;80.80
27072;DHT22;14613;46.308;25.288;2023-04-03T01:41:21;11.20;80.80
27072;DHT22;14613;46.308;25.288;2023-04-03T01:43:48;11.20;80.80
27072;DHT22;14613;46.308;25.288;2023-04-03T01:46:18;11.20;80.80
27072;DHT22;14613;46.308;25.288;2023-04-03T01:48:44;11.10;80.70
27072;DHT22;14613;46.308;25.288;2023-04-03T01:51:10;11.10;80.70
27072;DHT22;14613;46.308;25.288;2023-04-03T01:53:36;11.10;80.80
27072;DHT22;14613;46.308;25.288;2023-04-03T01:56:02;11.10;80.80
27072;DHT22;14613;46.308;25.288;2023-04-03T01:58:27;11.10;80.80
27072;DHT22;14613;46.308;25.288;2023-04-03T02:00:53;11.10;80.90
27072;DHT22;14613;46.308;25.288;2023-04-03T02:03:20;11.00;80.80
27072;DHT22;14613;46.308;25.288;2023-04-03T02:05:46;11.10;80.90
27072;DHT22;14613;46.308;25.288;2023-04-03T02:08:11;11.00;81.00
27072;DHT22;14613;46.308;25.288;2023-04-03T02:10:38;11.00;81.10
27072;DHT22;14613;46.308;25.288;2023-04-03T02:13:04;11.00;81.10
27072;DHT22;14613;46.308;25.288;2023-04-03T02:15:30;11.00;81.20
27072;DHT22;14613;46.308;25.288;2023-04-03T02:17:56;11.00;81.10
27072;DHT22;14613;46.308;25.288;2023-04-03T02:20:22;11.00;81.20
27072;DHT22;14613;46.308;25.288;2023-04-03T02:22:48;11.00;81.20
27072;DHT22;14613;46.308;25.288;2023-04-03T02:25:13;11.00;81.30
27072;DHT22;14613;46.308;25.288;2023-04-03T02:27:39;11.00;81.30
27072;DHT22;14613;46.308;25.288;2023-04-03T02:30:06;11.00;81.40
27072;DHT22;14613;46.308;25.288;2023-04-03T02:32:32;11.00;81.50
27072;DHT22;14613;46.308;25.288;2023-04-03T02:34:58;11.00;81.50
27072;DHT22;14613;46.308;25.288;2023-04-03T02:37:24;11.00;81.50
27072;DHT22;14613;46.308;25.288;2023-04-03T02:39:50;11.00;81.50
27072;DHT22;14613;46.308;25.288;2023-04-03T02:42:16;11.00;81.50
27072;DHT22;14613;46.308;25.288;2023-04-03T02:44:42;11.00;81.50
27072;DHT22;14613;46.308;25.288;2023-04-03T02:47:07;10.90;81.50
27072;DHT22;14613;46.308;25.288;2023-04-03T02:49:33;10.90;81.50
27072;DHT22;14613;46.308;25.288;2023-04-03T02:51:59;11.00;81.60
27072;DHT22;14613;46.308;25.288;2023-04-03T02:54:25;11.00;81.60
27072;DHT22;14613;46.308;25.288;2023-04-03T02:56:54;11.00;81.50
27072;DHT22;14613;46.308;25.288;2023-04-03T02:59:20;10.90;81.40
27072;DHT22;14613;46.308;25.288;2023-04-03T03:01:46;11.00;81.50
27072;DHT22;14613;46.308;25.288;2023-04-03T03:04:11;11.00;81.50
27072;DHT22;14613;46.308;25.288;2023-04-03T03:06:37;11.00;81.50
27072;DHT22;14613;46.308;25.288;2023-04-03T03:09:03;11.00;82.40
27072;DHT22;14613;46.308;25.288;2023-04-03T03:11:30;11.00;82.40
27072;DHT22;14613;46.308;25.288;2023-04-03T03:13:56;11.00;81.50
27072;DHT22;14613;46.308;25.288;2023-04-03T03:16:22;11.00;81.50
27072;DHT22;14613;46.308;25.288;2023-04-03T03:18:47;11.00;81.50
27072;DHT22;14613;46.308;25.288;2023-04-03T03:21:13;11.00;81.60
27072;DHT22;14613;46.308;25.288;2023-04-03T03:23:39;10.90;81.70
27072;DHT22;14613;46.308;25.288;2023-04-03T03:26:08;10.90;81.70
27072;DHT22;14613;46.308;25.288;2023-04-03T03:28:35;10.90;81.70
27072;DHT22;14613;46.308;25.288;2023-04-03T03:31:02;10.90;81.80
27072;DHT22;14613;46.308;25.288;2023-04-03T03:33:28;10.90;81.80
27072;DHT22;14613;46.308;25.288;2023-04-03T03:35:54;10.90;81.80
27072;DHT22;14613;46.308;25.288;2023-04-03T03:38:20;10.90;81.90
27072;DHT22;14613;46.308;25.288;2023-04-03T03:40:50;10.90;81.90
27072;DHT22;14613;46.308;25.288;2023-04-03T03:43:17;10.90;82.00
27072;DHT22;14613;46.308;25.288;2023-04-03T03:45:43;10.90;82.00
27072;DHT22;14613;46.308;25.288;2023-04-03T03:48:09;10.90;82.00
27072;DHT22;14613;46.308;25.288;2023-04-03T03:50:35;10.90;82.00
27072;DHT22;14613;46.308;25.288;2023-04-03T03:53:01;10.90;82.10
27072;DHT22;14613;46.308;25.288;2023-04-03T03:55:27;10.90;82.10
27072;DHT22;14613;46.308;25.288;2023-04-03T03:57:53;10.90;82.10
27072;DHT22;14613;46.308;25.288;2023-04-03T04:00:19;10.90;82.10
27072;DHT22;14613;46.308;25.288;2023-04-03T04:02:45;10.90;82.10
27072;DHT22;14613;46.308;25.288;2023-04-03T04:05:12;10.90;82.10
27072;DHT22;14613;46.308;25.288;2023-04-03T04:07:37;10.90;82.20
27072;DHT22;14613;46.308;25.288;2023-04-03T04:10:04;10.90;82.20
27072;DHT22;14613;46.308;25.288;2023-04-03T04:12:30;10.90;83.10
27072;DHT22;14613;46.308;25.288;2023-04-03T04:14:55;10.90;82.20
27072;DHT22;14613;46.308;25.288;2023-04-03T04:17:21;10.90;82.20
27072;DHT22;14613;46.308;25.288;2023-04-03T04:19:47;10.90;82.20
27072;DHT22;14613;46.308;25.288;2023-04-03T04:22:13;10.90;82.20
27072;DHT22;14613;46.308;25.288;2023-04-03T04:24:38;10.90;82.30
27072;DHT22;14613;46.308;25.288;2023-04-03T04:27:04;10.90;82.30
27072;DHT22;14613;46.308;25.288;2023-04-03T04:29:30;10.90;82.30
27072;DHT22;14613;46.308;25.288;2023-04-03T04:32:01;10.90;82.30
27072;DHT22;14613;46.308;25.288;2023-04-03T04:34:28;11.00;82.30
27072;DHT22;14613;46.308;25.288;2023-04-03T04:36:54;10.90;82.30
27072;DHT22;14613;46.308;25.288;2023-04-03T04:39:19;11.00;82.30
27072;DHT22;14613;46.308;25.288;2023-04-03T04:41:45;10.90;82.20
27072;DHT22;14613;46.308;25.288;2023-04-03T04:44:11;11.00;82.30
27072;DHT22;14613;46.308;25.288;2023-04-03T04:46:37;11.00;82.40
27072;DHT22;14613;46.308;25.288;2023-04-03T04:49:02;10.90;82.30
27072;DHT22;14613;46.308;25.288;2023-04-03T04:51:28;11.00;82.40
27072;DHT22;14613;46.308;25.288;2023-04-03T04:53:54;11.00;82.40
27072;DHT22;14613;46.308;25.288;2023-04-03T04:56:20;11.00;82.40
27072;DHT22;14613;46.308;25.288;2023-04-03T04:58:46;11.00;82.40
27072;DHT22;14613;46.308;25.288;2023-04-03T05:01:12;11.00;82.40
27072;DHT22;14613;46.308;25.288;2023-04-03T05:03:38;11.00;82.40
27072;DHT22;14613;46.308;25.288;2023-04-03T05:06:04;11.10;82.50
27072;DHT22;14613;46.308;25.288;2023-04-03T05:08:31;11.10;82.50
27072;DHT22;14613;46.308;25.288;2023-04-03T05:10:57;11.10;82.60
27072;DHT22;14613;46.308;25.288;2023-04-03T05:13:23;11.10;82.60
27072;DHT22;14613;46.308;25.288;2023-04-03T05:15:49;11.10;82.60
27072;DHT22;14613;46.308;25.288;2023-04-03T05:18:15;11.20;82.70
27072;DHT22;14613;46.308;25.288;2023-04-03T05:20:40;11.20;82.60
27072;DHT22;14613;46.308;25.288;2023-04-03T05:23:06;11.20;82.60
27072;DHT22;14613;46.308;25.288;2023-04-03T05:25:32;11.20;83.40
27072;DHT22;14613;46.308;25.288;2023-04-03T05:27:58;11.20;82.50
27072;DHT22;14613;46.308;25.288;2023-04-03T05:30:24;11.20;82.60
27072;DHT22;14613;46.308;25.288;2023-04-03T05:32:50;11.20;82.70
27072;DHT22;14613;46.308;25.288;2023-04-03T05:35:16;11.10;82.90
27072;DHT22;14613;46.308;25.288;2023-04-03T05:37:42;11.10;83.20
27072;DHT22;14613;46.308;25.288;2023-04-03T05:40:08;11.10;83.50
27072;DHT22;14613;46.308;25.288;2023-04-03T05:42:34;11.00;83.70
27072;DHT22;14613;46.308;25.288;2023-04-03T05:45:00;11.00;83.90
27072;DHT22;14613;46.308;25.288;2023-04-03T05:47:26;11.00;84.10
27072;DHT22;14613;46.308;25.288;2023-04-03T05:49:51;11.10;84.30
27072;DHT22;14613;46.308;25.288;2023-04-03T05:52:31;11.10;84.20
27072;DHT22;14613;46.308;25.288;2023-04-03T05:54:58;11.20;84.20
27072;DHT22;14613;46.308;25.288;2023-04-03T05:57:24;11.20;84.20
27072;DHT22;14613;46.308;25.288;2023-04-03T05:59:50;11.30;84.30
27072;DHT22;14613;46.308;25.288;2023-04-03T06:02:19;11.40;84.30
27072;DHT22;14613;46.308;25.288;2023-04-03T06:04:45;11.50;84.10
27072;DHT22;14613;46.308;25.288;2023-04-03T06:07:16;11.60;84.10
27072;DHT22;14613;46.308;25.288;2023-04-03T06:09:43;11.70;84.10
27072;DHT22;14613;46.308;25.288;2023-04-03T06:12:09;11.80;84.10
27072;DHT22;14613;46.308;25.288;2023-04-03T06:14:36;12.00;84.00
27072;DHT22;14613;46.308;25.288;2023-04-03T06:17:01;12.10;83.80
27072;DHT22;14613;46.308;25.288;2023-04-03T06:19:28;12.30;83.60
27072;DHT22;14613;46.308;25.288;2023-04-03T06:21:54;12.40;83.40
27072;DHT22;14613;46.308;25.288;2023-04-03T06:24:20;12.50;83.40
27072;DHT22;14613;46.308;25.288;2023-04-03T06:26:48;12.60;83.10
27072;DHT22;14613;46.308;25.288;2023-04-03T06:29:15;12.70;82.80
27072;DHT22;14613;46.308;25.288;2023-04-03T06:31:41;12.80;82.60
27072;DHT22;14613;46.308;25.288;2023-04-03T06:34:07;12.80;82.40
27072;DHT22;14613;46.308;25.288;2023-04-03T06:36:33;12.90;82.50
27072;DHT22;14613;46.308;25.288;2023-04-03T06:38:58;12.90;82.40
27072;DHT22;14613;46.308;25.288;2023-04-03T06:41:25;13.00;82.30
27072;DHT22;14613;46.308;25.288;2023-04-03T06:43:51;13.10;82.30
27072;DHT22;14613;46.308;25.288;2023-04-03T06:46:20;13.20;82.20
27072;DHT22;14613;46.308;25.288;2023-04-03T06:48:46;13.50;82.90
27072;DHT22;14613;46.308;25.288;2023-04-03T06:51:21;13.80;83.30
27072;DHT22;14613;46.308;25.288;2023-04-03T06:53:47;14.30;83.10
27072;DHT22;14613;46.308;25.288;2023-04-03T06:56:14;14.60;82.00
27072;DHT22;14613;46.308;25.288;2023-04-03T06:58:40;14.80;81.20
27072;DHT22;14613;46.308;25.288;2023-04-03T07:01:07;14.90;80.80
27072;DHT22;14613;46.308;25.288;2023-04-03T07:03:33;15.10;80.70
27072;DHT22;14613;46.308;25.288;2023-04-03T07:06:01;15.20;80.40
27072;DHT22;14613;46.308;25.288;2023-04-03T07:08:26;15.30;79.90
27072;DHT22;14613;46.308;25.288;2023-04-03T07:10:52;15.30;79.60
27072;DHT22;14613;46.308;25.288;2023-04-03T07:13:18;15.30;79.30
27072;DHT22;14613;46.308;25.288;2023-04-03T07:15:44;15.30;79.00
27072;DHT22;14613;46.308;25.288;2023-04-03T07:18:10;15.20;78.80
27072;DHT22;14613;46.308;25.288;2023-04-03T07:20:36;15.00;78.70
27072;DHT22;14613;46.308;25.288;2023-04-03T07:23:02;14.90;79.30
27072;DHT22;14613;46.308;25.288;2023-04-03T07:25:28;14.80;80.50
27072;DHT22;14613;46.308;25.288;2023-04-03T07:27:54;15.00;81.20
27072;DHT22;14613;46.308;25.288;2023-04-03T07:30:20;15.20;81.40
27072;DHT22;14613;46.308;25.288;2023-04-03T07:32:46;15.50;80.60
27072;DHT22;14613;46.308;25.288;2023-04-03T07:35:12;15.60;79.70
27072;DHT22;14613;46.308;25.288;2023-04-03T07:37:38;15.80;78.80
27072;DHT22;14613;46.308;25.288;2023-04-03T07:40:05;15.80;79.80
27072;DHT22;14613;46.308;25.288;2023-04-03T07:42:32;16.00;79.20
27072;DHT22;14613;46.308;25.288;2023-04-03T07:44:57;16.20;78.80
27072;DHT22;14613;46.308;25.288;2023-04-03T07:47:23;16.40;78.30
27072;DHT22;14613;46.308;25.288;2023-04-03T07:49:49;16.70;77.70
27072;DHT22;14613;46.308;25.288;2023-04-03T07:52:15;16.90;77.30
27072;DHT22;14613;46.308;25.288;2023-04-03T07:54:41;17.20;76.90
27072;DHT22;14613;46.308;25.288;2023-04-03T07:57:07;17.50;76.10
27072;DHT22;14613;46.308;25.288;2023-04-03T07:59:33;17.70;75.40
27072;DHT22;14613;46.308;25.288;2023-04-03T08:01:59;17.90;75.00
27072;DHT22;14613;46.308;25.288;2023-04-03T08:04:25;18.10;74.30
27072;DHT22;14613;46.308;25.288;2023-04-03T08:06:51;18.30;73.80
27072;DHT22;14613;46.308;25.288;2023-04-03T08:09:18;18.50;73.40
27072;DHT22;14613;46.308;25.288;2023-04-03T08:11:44;18.60;73.00
27072;DHT22;14613;46.308;25.288;2023-04-03T08:14:11;18.80;72.70
27072;DHT22;14613;46.308;25.288;2023-04-03T08:16:43;18.90;72.10
27072;DHT22;14613;46.308;25.288;2023-04-03T08:19:09;19.00;72.00
27072;DHT22;14613;46.308;25.288;2023-04-03T08:21:36;19.10;72.10
27072;DHT22;14613;46.308;25.288;2023-04-03T08:24:02;19.30;72.90
27072;DHT22;14613;46.308;25.288;2023-04-03T08:26:29;19.30;70.60
27072;DHT22;14613;46.308;25.288;2023-04-03T08:28:55;19.20;69.90
27072;DHT22;14613;46.308;25.288;2023-04-03T08:31:21;19.00;70.00
27072;DHT22;14613;46.308;25.288;2023-04-03T08:33:47;18.80;70.00
27072;DHT22;14613;46.308;25.288;2023-04-03T08:36:19;18.60;70.10
27072;DHT22;14613;46.308;25.288;2023-04-03T08:38:46;18.40;70.30
27072;DHT22;14613;46.308;25.288;2023-04-03T08:41:35;18.20;70.60
27072;DHT22;14613;46.308;25.288;2023-04-03T08:49:41;17.70;71.00
27072;DHT22;14613;46.308;25.288;2023-04-03T08:52:15;17.70;70.80
27072;DHT22;14613;46.308;25.288;2023-04-03T08:54:54;17.60;70.80
27072;DHT22;14613;46.308;25.288;2023-04-03T08:57:33;17.40;71.00
27072;DHT22;14613;46.308;25.288;2023-04-03T09:00:23;17.30;71.50
27072;DHT22;14613;46.308;25.288;2023-04-03T09:02:54;17.30;71.80
27072;DHT22;14613;46.308;25.288;2023-04-03T09:05:57;17.40;72.20
27072;DHT22;14613;46.308;25.288;2023-04-03T09:08:31;17.70;72.10
27072;DHT22;14613;46.308;25.288;2023-04-03T09:24:34;18.40;69.60
27072;DHT22;14613;46.308;25.288;2023-04-03T09:27:04;18.60;70.10
27072;DHT22;14613;46.308;25.288;2023-04-03T09:29:34;18.80;69.80
27072;DHT22;14613;46.308;25.288;2023-04-03T09:32:12;19.10;69.70
27072;DHT22;14613;46.308;25.288;2023-04-03T09:34:43;19.30;69.20
27072;DHT22;14613;46.308;25.288;2023-04-03T09:37:09;19.50;69.10
27072;DHT22;14613;46.308;25.288;2023-04-03T09:39:53;19.80;68.90
27072;DHT22;14613;46.308;25.288;2023-04-03T09:42:21;20.00;67.90
27072;DHT22;14613;46.308;25.288;2023-04-03T09:44:57;20.20;67.70
27072;DHT22;14613;46.308;25.288;2023-04-03T09:47:29;20.30;67.40
27072;DHT22;14613;46.308;25.288;2023-04-03T09:52:40;20.50;67.00
27072;DHT22;14613;46.308;25.288;2023-04-03T09:55:14;20.70;66.70
27072;DHT22;14613;46.308;25.288;2023-04-03T09:57:46;20.80;66.30
27072;DHT22;14613;46.308;25.288;2023-04-03T10:00:35;20.90;66.00
27072;DHT22;14613;46.308;25.288;2023-04-03T10:03:02;21.10;65.20
27072;DHT22;14613;46.308;25.288;2023-04-03T10:05:39;21.30;64.50
27072;DHT22;14613;46.308;25.288;2023-04-03T10:08:21;21.30;63.40
27072;DHT22;14613;46.308;25.288;2023-04-03T10:13:50;21.30;62.70
27072;DHT22;14613;46.308;25.288;2023-04-03T10:16:18;21.20;62.20
27072;DHT22;14613;46.308;25.288;2023-04-03T10:24:36;19.70;59.50
27072;DHT22;14613;46.308;25.288;2023-04-03T10:29:55;18.90;62.00
27072;DHT22;14613;46.308;25.288;2023-04-03T10:35:24;19.20;63.00
27072;DHT22;14613;46.308;25.288;2023-04-03T10:43:26;19.50;62.70
27072;DHT22;14613;46.308;25.288;2023-04-03T10:54:24;19.60;61.80
27072;DHT22;14613;46.308;25.288;2023-04-03T10:56:57;19.60;61.90
27072;DHT22;14613;46.308;25.288;2023-04-03T11:02:14;19.70;61.80
27072;DHT22;14613;46.308;25.288;2023-04-03T11:04:43;19.80;61.40
27072;DHT22;14613;46.308;25.288;2023-04-03T11:07:20;19.60;60.90
27072;DHT22;14613;46.308;25.288;2023-04-03T11:09:51;19.50;61.00
27072;DHT22;14613;46.308;25.288;2023-04-03T11:12:26;19.50;60.90
27072;DHT22;14613;46.308;25.288;2023-04-03T11:14:55;19.30;60.70
27072;DHT22;14613;46.308;25.288;2023-04-03T11:17:35;19.20;60.90
27072;DHT22;14613;46.308;25.288;2023-04-03T11:22:45;19.10;61.40
27072;DHT22;14613;46.308;25.288;2023-04-03T11:30:14;19.10;61.20
27072;DHT22;14613;46.308;25.288;2023-04-03T11:33:02;19.20;61.70
27072;DHT22;14613;46.308;25.288;2023-04-03T11:35:31;19.40;61.70
27072;DHT22;14613;46.308;25.288;2023-04-03T11:37:59;19.50;61.40
27072;DHT22;14613;46.308;25.288;2023-04-03T11:40:29;19.50;60.50
27072;DHT22;14613;46.308;25.288;2023-04-03T11:43:28;19.50;60.50
27072;DHT22;14613;46.308;25.288;2023-04-03T11:50:54;19.30;60.40
27072;DHT22;14613;46.308;25.288;2023-04-03T11:55:58;19.00;60.00
27072;DHT22;14613;46.308;25.288;2023-04-03T11:58:34;18.80;60.10
27072;DHT22;14613;46.308;25.288;2023-04-03T12:01:02;18.70;60.30
27072;DHT22;14613;46.308;25.288;2023-04-03T12:14:03;18.70;60.90
27072;DHT22;14613;46.308;25.288;2023-04-03T12:38:33;17.60;60.60
27072;DHT22;14613;46.308;25.288;2023-04-03T12:44:27;17.40;60.90
27072;DHT22;14613;46.308;25.288;2023-04-03T12:47:00;17.30;60.90
27072;DHT22;14613;46.308;25.288;2023-04-03T12:49:39;17.20;60.90
27072;DHT22;14613;46.308;25.288;2023-04-03T12:52:33;17.10;60.70
27072;DHT22;14613;46.308;25.288;2023-04-03T12:55:01;17.00;60.90
27072;DHT22;14613;46.308;25.288;2023-04-03T12:57:30;16.90;61.10
27072;DHT22;14613;46.308;25.288;2023-04-03T12:59:57;16.90;61.20
27072;DHT22;14613;46.308;25.288;2023-04-03T13:02:26;16.80;61.10
27072;DHT22;14613;46.308;25.288;2023-04-03T13:04:55;16.70;61.20
27072;DHT22;14613;46.308;25.288;2023-04-03T13:07:30;16.60;61.50
27072;DHT22;14613;46.308;25.288;2023-04-03T13:15:17;16.40;62.10
27072;DHT22;14613;46.308;25.288;2023-04-03T13:17:43;16.40;62.30
27072;DHT22;14613;46.308;25.288;2023-04-03T13:20:38;16.40;62.40
27072;DHT22;14613;46.308;25.288;2023-04-03T13:23:10;16.30;62.10
27072;DHT22;14613;46.308;25.288;2023-04-03T13:25:41;16.30;62.20
27072;DHT22;14613;46.308;25.288;2023-04-03T13:28:12;16.20;62.40
27072;DHT22;14613;46.308;25.288;2023-04-03T13:30:39;16.20;62.50
27072;DHT22;14613;46.308;25.288;2023-04-03T13:33:20;16.10;62.70
27072;DHT22;14613;46.308;25.288;2023-04-03T13:35:47;16.10;62.80
27072;DHT22;14613;46.308;25.288;2023-04-03T13:40:55;16.10;63.00
27072;DHT22;14613;46.308;25.288;2023-04-03T13:43:24;16.20;62.90
27072;DHT22;14613;46.308;25.288;2023-04-03T13:48:41;16.40;63.40
27072;DHT22;14613;46.308;25.288;2023-04-03T13:53:44;16.40;62.40
27072;DHT22;14613;46.308;25.288;2023-04-03T13:56:40;16.40;62.40
27072;DHT22;14613;46.308;25.288;2023-04-03T14:01:46;16.20;62.70
27072;DHT22;14613;46.308;25.288;2023-04-03T14:04:22;16.00;63.00
27072;DHT22;14613;46.308;25.288;2023-04-03T14:06:49;15.80;63.50
27072;DHT22;14613;46.308;25.288;2023-04-03T14:09:17;15.70;64.00
27072;DHT22;14613;46.308;25.288;2023-04-03T14:11:43;15.60;65.20
27072;DHT22;14613;46.308;25.288;2023-04-03T14:14:21;15.60;64.60
27072;DHT22;14613;46.308;25.288;2023-04-03T14:16:52;15.60;64.70
27072;DHT22;14613;46.308;25.288;2023-04-03T14:19:22;15.50;64.90
27072;DHT22;14613;46.308;25.288;2023-04-03T14:21:49;15.50;65.00
27072;DHT22;14613;46.308;25.288;2023-04-03T14:24:16;15.60;65.20
27072;DHT22;14613;46.308;25.288;2023-04-03T14:26:43;15.50;65.30
27072;DHT22;14613;46.308;25.288;2023-04-03T14:29:11;15.40;65.50
27072;DHT22;14613;46.308;25.288;2023-04-03T14:31:37;15.40;65.80
27072;DHT22;14613;46.308;25.288;2023-04-03T14:34:03;15.30;65.90
27072;DHT22;14613;46.308;25.288;2023-04-03T14:36:30;15.30;66.20
27072;DHT22;14613;46.308;25.288;2023-04-03T14:38:57;15.30;66.50
27072;DHT22;14613;46.308;25.288;2023-04-03T14:41:24;15.20;66.70
27072;DHT22;14613;46.308;25.288;2023-04-03T14:43:51;15.10;67.00
27072;DHT22;14613;46.308;25.288;2023-04-03T14:49:19;15.10;67.20
27072;DHT22;14613;46.308;25.288;2023-04-03T14:51:46;15.10;67.50
27072;DHT22;14613;46.308;25.288;2023-04-03T14:54:18;15.00;67.50
27072;DHT22;14613;46.308;25.288;2023-04-03T14:56:45;15.00;67.60
27072;DHT22;14613;46.308;25.288;2023-04-03T14:59:14;15.00;67.80
27072;DHT22;14613;46.308;25.288;2023-04-03T15:01:40;15.00;67.90
27072;DHT22;14613;46.308;25.288;2023-04-03T15:04:17;15.00;68.00
27072;DHT22;14613;46.308;25.288;2023-04-03T15:06:44;15.00;68.10
27072;DHT22;14613;46.308;25.288;2023-04-03T15:09:30;15.00;68.10
27072;DHT22;14613;46.308;25.288;2023-04-03T15:11:56;15.00;68.20
27072;DHT22;14613;46.308;25.288;2023-04-03T15:14:22;15.00;68.30
27072;DHT22;14613;46.308;25.288;2023-04-03T15:16:48;15.00;68.40
27072;DHT22;14613;46.308;25.288;2023-04-03T15:19:14;15.00;68.50
27072;DHT22;14613;46.308;25.288;2023-04-03T15:21:40;14.90;68.60
27072;DHT22;14613;46.308;25.288;2023-04-03T15:24:06;14.90;68.90
27072;DHT22;14613;46.308;25.288;2023-04-03T15:26:32;14.90;70.00
27072;DHT22;14613;46.308;25.288;2023-04-03T15:28:58;14.80;69.40
27072;DHT22;14613;46.308;25.288;2023-04-03T15:31:24;14.80;69.40
27072;DHT22;14613;46.308;25.288;2023-04-03T15:33:50;14.80;69.40
27072;DHT22;14613;46.308;25.288;2023-04-03T15:36:16;14.80;69.40
27072;DHT22;14613;46.308;25.288;2023-04-03T15:38:42;14.70;69.30
27072;DHT22;14613;46.308;25.288;2023-04-03T15:41:08;14.60;69.60
27072;DHT22;14613;46.308;25.288;2023-04-03T15:43:34;14.40;70.30
27072;DHT22;14613;46.308;25.288;2023-04-03T15:46:01;14.20;70.90
27072;DHT22;14613;46.308;25.288;2023-04-03T15:48:27;14.00;71.40
27072;DHT22;14613;46.308;25.288;2023-04-03T15:50:54;13.90;72.00
27072;DHT22;14613;46.308;25.288;2023-04-03T15:53:20;13.70;72.40
27072;DHT22;14613;46.308;25.288;2023-04-03T15:55:46;13.70;72.80
27072;DHT22;14613;46.308;25.288;2023-04-03T15:58:11;13.70;73.00
27072;DHT22;14613;46.308;25.288;2023-04-03T16:00:37;13.60;73.00
27072;DHT22;14613;46.308;25.288;2023-04-03T16:03:12;13.60;73.10
27072;DHT22;14613;46.308;25.288;2023-04-03T16:05:40;13.50;73.50
27072;DHT22;14613;46.308;25.288;2023-04-03T16:08:06;13.40;73.90
27072;DHT22;14613;46.308;25.288;2023-04-03T16:10:35;13.30;74.20
27072;DHT22;14613;46.308;25.288;2023-04-03T16:13:01;13.30;74.70
27072;DHT22;14613;46.308;25.288;2023-04-03T16:15:26;13.20;75.00
27072;DHT22;14613;46.308;25.288;2023-04-03T16:17:53;13.20;75.10
27072;DHT22;14613;46.308;25.288;2023-04-03T16:20:19;13.20;75.10
27072;DHT22;14613;46.308;25.288;2023-04-03T16:22:45;13.20;75.10
27072;DHT22;14613;46.308;25.288;2023-04-03T16:25:11;13.20;75.00
27072;DHT22;14613;46.308;25.288;2023-04-03T16:27:37;13.30;75.00
27072;DHT22;14613;46.308;25.288;2023-04-03T16:30:04;13.20;74.90
27072;DHT22;14613;46.308;25.288;2023-04-03T16:32:32;13.30;75.60
27072;DHT22;14613;46.308;25.288;2023-04-03T16:34:58;13.30;74.70
27072;DHT22;14613;46.308;25.288;2023-04-03T16:37:24;13.30;74.60
27072;DHT22;14613;46.308;25.288;2023-04-03T16:39:50;13.30;74.60
27072;DHT22;14613;46.308;25.288;2023-04-03T16:42:16;13.30;74.50
27072;DHT22;14613;46.308;25.288;2023-04-03T16:44:42;13.30;74.40
27072;DHT22;14613;46.308;25.288;2023-04-03T16:47:08;13.30;74.30
27072;DHT22;14613;46.308;25.288;2023-04-03T16:49:34;13.30;74.20
27072;DHT22;14613;46.308;25.288;2023-04-03T16:52:02;13.30;74.20
27072;DHT22;14613;46.308;25.288;2023-04-03T16:54:29;13.30;74.30
27072;DHT22;14613;46.308;25.288;2023-04-03T16:56:55;13.30;74.30
27072;DHT22;14613;46.308;25.288;2023-04-03T16:59:21;13.30;74.30
27072;DHT22;14613;46.308;25.288;2023-04-03T17:01:46;13.30;74.30
27072;DHT22;14613;46.308;25.288;2023-04-03T17:04:12;13.30;74.40
27072;DHT22;14613;46.308;25.288;2023-04-03T17:06:39;13.30;74.50
27072;DHT22;14613;46.308;25.288;2023-04-03T17:09:05;13.30;74.40
27072;DHT22;14613;46.308;25.288;2023-04-03T17:11:32;13.20;74.50
27072;DHT22;14613;46.308;25.288;2023-04-03T17:13:58;13.10;75.60
27072;DHT22;14613;46.308;25.288;2023-04-03T17:16:24;13.00;75.00
27072;DHT22;14613;46.308;25.288;2023-04-03T17:18:50;12.90;75.30
27072;DHT22;14613;46.308;25.288;2023-04-03T17:21:17;12.70;75.70
27072;DHT22;14613;46.308;25.288;2023-04-03T17:23:47;12.60;76.00
27072;DHT22;14613;46.308;25.288;2023-04-03T17:26:14;12.60;76.10
27072;DHT22;14613;46.308;25.288;2023-04-03T17:28:40;12.60;76.10
27072;DHT22;14613;46.308;25.288;2023-04-03T17:31:07;12.60;76.00